createdAt,value
2022-10-05T00:01:52.835Z,16.90
2022-10-05T00:04:59.382Z,17.00
2022-10-05T00:08:13.936Z,16.90
2022-10-05T00:11:18.644Z,16.90
2022-10-05T00:14:27.083Z,16.90
2022-10-05T00:17:31.840Z,16.90
2022-10-05T00:20:35.329Z,16.90
2022-10-05T00:23:38.369Z,17.00
2022-10-05T00:26:41.425Z,17.00
2022-10-05T00:29:44.734Z,17.10
2022-10-05T00:32:49.522Z,17.80
2022-10-05T00:35:52.600Z,17.10
2022-10-05T00:38:56.658Z,17.10
2022-10-05T00:42:27.889Z,17.10
2022-10-05T00:45:36.964Z,17.10
2022-10-05T00:48:55.042Z,17.10
2022-10-05T00:52:11.908Z,17.20
2022-10-05T00:55:29.745Z,17.20
2022-10-05T00:58:56.641Z,17.20
2022-10-05T01:02:08.564Z,17.30
2022-10-05T01:05:28.365Z,17.30
2022-10-05T01:08:49.271Z,17.30
2022-10-05T01:12:04.616Z,17.40
2022-10-05T01:15:16.943Z,17.30
2022-10-05T01:18:28.835Z,18.00
2022-10-05T01:21:42.699Z,17.40
2022-10-05T01:24:58.771Z,17.40
2022-10-05T01:28:12.473Z,17.30
2022-10-05T01:31:25.580Z,17.70
2022-10-05T01:34:38.941Z,17.40
2022-10-05T01:37:55.510Z,17.30
2022-10-05T01:41:13.420Z,17.40
2022-10-05T01:44:25.871Z,17.40
2022-10-05T01:47:43.162Z,17.40
2022-10-05T01:51:02.294Z,17.50
2022-10-05T01:54:23.546Z,16.90
2022-10-05T01:57:43.974Z,17.40
2022-10-05T02:00:59.946Z,17.40
2022-10-05T02:04:10.020Z,17.50
2022-10-05T02:07:21.229Z,17.40
2022-10-05T02:10:31.984Z,17.40
2022-10-05T02:13:41.146Z,17.40
2022-10-05T02:16:49.260Z,17.40
2022-10-05T02:19:59.675Z,17.40
2022-10-05T02:23:11.754Z,17.40
2022-10-05T02:26:17.480Z,17.40
2022-10-05T02:29:25.399Z,17.50
2022-10-05T02:32:38.295Z,17.50
2022-10-05T02:35:41.212Z,17.50
2022-10-05T02:39:00.871Z,17.40
2022-10-05T02:42:14.061Z,17.50
2022-10-05T02:45:28.375Z,17.50
2022-10-05T02:48:45.629Z,17.50
2022-10-05T02:51:58.721Z,17.50
2022-10-05T02:55:15.415Z,17.50
2022-10-05T02:58:25.071Z,17.50
2022-10-05T03:01:37.152Z,17.50
2022-10-05T03:04:55.569Z,17.50
2022-10-05T03:08:06.319Z,17.50
2022-10-05T03:11:19.516Z,17.50
2022-10-05T03:14:31.109Z,17.50
2022-10-05T03:17:46.260Z,17.40
2022-10-05T03:21:05.790Z,17.40
2022-10-05T03:24:32.796Z,17.40
2022-10-05T03:27:45.779Z,17.40
2022-10-05T03:31:01.875Z,17.40
2022-10-05T03:34:12.426Z,17.30
2022-10-05T03:37:24.485Z,17.30
2022-10-05T03:40:36.082Z,17.30
2022-10-05T03:44:20.672Z,17.30
2022-10-05T03:47:36.883Z,17.20
2022-10-05T03:50:52.131Z,17.30
2022-10-05T03:54:06.754Z,17.30
2022-10-05T03:57:16.681Z,17.20
2022-10-05T04:00:23.783Z,17.20
2022-10-05T04:03:36.365Z,17.20
2022-10-05T04:06:47.480Z,17.30
2022-10-05T04:09:55.657Z,17.20
2022-10-05T04:13:07.719Z,17.30
2022-10-05T04:16:16.626Z,17.20
2022-10-05T04:19:26.842Z,17.40
2022-10-05T04:22:38.140Z,17.70
2022-10-05T04:25:49.595Z,17.20
2022-10-05T04:29:01.539Z,17.80
2022-10-05T04:32:29.623Z,17.20
2022-10-05T04:36:02.438Z,17.20
2022-10-05T04:39:19.832Z,17.30
2022-10-05T04:42:33.900Z,17.30
2022-10-05T04:46:07.174Z,17.20
2022-10-05T04:49:28.408Z,17.20
2022-10-05T04:52:44.911Z,17.60
2022-10-05T04:55:58.819Z,17.20
2022-10-05T04:59:37.946Z,17.20
2022-10-05T05:03:21.557Z,17.20
2022-10-05T05:06:35.553Z,17.20
2022-10-05T05:10:07.711Z,16.70
2022-10-05T05:13:45.661Z,17.30
2022-10-05T05:17:12.874Z,17.30
2022-10-05T05:20:25.455Z,17.30
2022-10-05T05:23:39.718Z,17.40
2022-10-05T05:27:01.201Z,17.30
2022-10-05T05:30:15.432Z,17.40
2022-10-05T05:33:31.208Z,17.40
2022-10-05T05:36:49.041Z,17.40
2022-10-05T05:40:06.955Z,17.40
2022-10-05T05:43:26.044Z,17.40
2022-10-05T05:47:01.627Z,17.40
2022-10-05T05:50:25.735Z,17.40
2022-10-05T05:53:36.888Z,17.40
2022-10-05T05:56:47.856Z,17.40
2022-10-05T06:00:03.753Z,17.40
2022-10-05T06:03:17.667Z,17.50
2022-10-05T06:06:27.839Z,17.70
2022-10-05T06:09:41.491Z,17.50
2022-10-05T06:12:51.223Z,17.10
2022-10-05T06:16:00.841Z,17.50
2022-10-05T06:19:11.772Z,17.60
2022-10-05T06:22:23.242Z,17.60
2022-10-05T06:25:38.851Z,17.60
2022-10-05T06:28:43.438Z,17.60
2022-10-05T06:32:06.716Z,17.60
2022-10-05T06:35:23.438Z,17.70
2022-10-05T06:38:59.698Z,18.00
2022-10-05T06:42:33.314Z,17.70
2022-10-05T06:45:59.098Z,17.70
2022-10-05T06:49:18.401Z,17.70
2022-10-05T06:52:30.613Z,17.80
2022-10-05T06:55:50.392Z,17.80
2022-10-05T06:59:04.464Z,17.90
2022-10-05T07:02:19.133Z,17.90
2022-10-05T07:05:58.029Z,17.90
2022-10-05T07:09:27.727Z,18.00
2022-10-05T07:12:50.941Z,18.00
2022-10-05T07:16:03.107Z,18.10
2022-10-05T07:19:32.593Z,18.20
2022-10-05T07:23:23.716Z,18.20
2022-10-05T07:26:34.467Z,18.40
2022-10-05T07:29:52.133Z,18.50
2022-10-05T07:33:09.322Z,18.60
2022-10-05T07:36:41.785Z,18.70
2022-10-05T07:40:00.483Z,18.80
2022-10-05T07:43:22.223Z,19.10
2022-10-05T07:46:38.469Z,19.20
2022-10-05T07:49:53.611Z,19.30
2022-10-05T07:53:01.666Z,19.50
2022-10-05T07:56:13.609Z,19.70
2022-10-05T07:59:30.769Z,19.60
2022-10-05T08:02:44.432Z,19.70
2022-10-05T08:05:48.370Z,19.70
2022-10-05T08:08:58.058Z,19.80
2022-10-05T08:12:23.709Z,19.80
2022-10-05T08:15:35.224Z,19.80
2022-10-05T08:18:55.645Z,19.70
2022-10-05T08:22:07.089Z,19.70
2022-10-05T08:25:22.970Z,19.60
2022-10-05T08:28:31.798Z,19.70
2022-10-05T08:31:39.284Z,19.70
2022-10-05T08:34:52.702Z,19.70
2022-10-05T08:37:56.980Z,19.70
2022-10-05T08:41:49.059Z,19.80
2022-10-05T08:45:29.504Z,19.70
2022-10-05T08:49:16.785Z,19.80
2022-10-05T08:52:29.845Z,19.80
2022-10-05T08:55:52.809Z,19.80
2022-10-05T08:59:34.846Z,19.80
2022-10-05T09:03:08.710Z,19.80
2022-10-05T09:06:46.369Z,19.80
2022-10-05T09:10:50.535Z,19.80
2022-10-05T09:14:27.647Z,19.80
2022-10-05T09:18:15.399Z,19.80
2022-10-05T09:21:40.780Z,19.80
2022-10-05T09:24:57.727Z,19.90
2022-10-05T09:28:25.397Z,19.90
2022-10-05T09:32:12.952Z,19.90
2022-10-05T09:35:58.048Z,19.90
2022-10-05T09:39:42.292Z,20.00
2022-10-05T09:43:10.182Z,19.90
2022-10-05T09:47:02.238Z,19.90
2022-10-05T09:50:51.335Z,19.90
2022-10-05T09:54:35.001Z,20.00
2022-10-05T09:58:15.149Z,20.00
2022-10-05T10:01:34.313Z,20.00
2022-10-05T10:05:07.695Z,20.10
2022-10-05T10:08:32.429Z,19.30
2022-10-05T10:12:04.983Z,20.20
2022-10-05T10:15:51.044Z,20.30
2022-10-05T10:19:31.814Z,20.30
2022-10-05T10:23:30.503Z,20.40
2022-10-05T10:27:23.054Z,20.40
2022-10-05T10:31:01.710Z,20.30
2022-10-05T10:34:29.998Z,20.40
2022-10-05T10:38:48.396Z,20.40
2022-10-05T10:42:28.875Z,20.40
2022-10-05T10:45:49.833Z,20.40
2022-10-05T10:49:02.485Z,20.20
2022-10-05T10:52:38.850Z,20.40
2022-10-05T10:55:58.860Z,20.40
2022-10-05T11:00:05.649Z,20.40
2022-10-05T11:03:51.185Z,20.40
2022-10-05T11:07:53.027Z,20.40
2022-10-05T11:11:59.489Z,20.40
2022-10-05T11:15:34.192Z,20.50
2022-10-05T11:19:02.282Z,20.50
2022-10-05T11:22:30.545Z,20.50
2022-10-05T11:26:05.402Z,20.50
2022-10-05T11:29:33.216Z,20.50
2022-10-05T11:33:35.516Z,20.10
2022-10-05T11:37:04.866Z,20.50
2022-10-05T11:41:10.495Z,20.40
2022-10-05T11:44:50.518Z,20.10
2022-10-05T11:48:17.314Z,20.50
2022-10-05T11:51:35.159Z,20.50
2022-10-05T11:55:19.334Z,20.50
2022-10-05T11:58:32.498Z,20.50
2022-10-05T12:01:45.674Z,20.50
2022-10-05T12:05:04.448Z,20.60
2022-10-05T12:08:29.099Z,20.60
2022-10-05T12:11:44.807Z,20.60
2022-10-05T12:15:00.189Z,20.70
2022-10-05T12:18:13.415Z,20.70
2022-10-05T12:21:34.703Z,20.70
2022-10-05T12:25:19.112Z,20.70
2022-10-05T12:28:34.268Z,20.80
2022-10-05T12:31:51.729Z,20.80
2022-10-05T12:35:05.543Z,20.80
2022-10-05T12:38:20.876Z,20.80
2022-10-05T12:41:32.978Z,20.80
2022-10-05T12:45:04.381Z,20.90
2022-10-05T12:48:40.021Z,21.50
2022-10-05T12:51:51.438Z,20.90
2022-10-05T12:55:04.919Z,20.90
2022-10-05T12:58:26.602Z,21.00
2022-10-05T13:01:40.922Z,20.90
2022-10-05T13:04:57.430Z,20.80
2022-10-05T13:08:12.756Z,20.90
2022-10-05T13:11:24.891Z,20.80
2022-10-05T13:14:53.630Z,20.80
2022-10-05T13:18:16.914Z,20.70
2022-10-05T13:21:32.469Z,20.70
2022-10-05T13:24:43.554Z,20.70
2022-10-05T13:28:07.894Z,20.60
2022-10-05T13:31:19.862Z,20.60
2022-10-05T13:34:36.074Z,20.60
2022-10-05T13:37:53.190Z,20.50
2022-10-05T13:41:09.731Z,20.50
2022-10-05T13:44:28.523Z,20.50
2022-10-05T13:47:41.921Z,20.50
2022-10-05T13:50:55.490Z,20.50
2022-10-05T13:54:11.667Z,20.50
2022-10-05T13:57:32.755Z,20.50
2022-10-05T14:00:45.237Z,20.50
2022-10-05T14:05:01.931Z,20.50
2022-10-05T14:08:18.441Z,20.50
2022-10-05T14:11:31.196Z,20.00
2022-10-05T14:14:47.084Z,21.00
2022-10-05T14:17:52.683Z,20.40
2022-10-05T14:21:22.086Z,20.40
2022-10-05T14:24:43.555Z,20.40
2022-10-05T14:27:59.758Z,20.30
2022-10-05T14:32:31.791Z,20.30
2022-10-05T14:35:50.018Z,20.30
2022-10-05T14:39:00.490Z,20.20
2022-10-05T14:42:16.890Z,20.20
2022-10-05T14:45:25.065Z,20.10
2022-10-05T14:48:41.639Z,20.10
2022-10-05T14:51:44.731Z,20.10
2022-10-05T14:55:00.895Z,19.60
2022-10-05T14:58:25.204Z,20.00
2022-10-05T15:01:32.370Z,20.00
2022-10-05T15:04:43.672Z,19.90
2022-10-05T15:07:50.360Z,19.80
2022-10-05T15:11:04.943Z,19.90
2022-10-05T15:14:18.149Z,19.90
2022-10-05T15:17:34.657Z,19.90
2022-10-05T15:20:50.154Z,19.70
2022-10-05T15:23:58.343Z,19.70
2022-10-05T15:27:06.166Z,19.70
2022-10-05T15:30:18.015Z,19.70
2022-10-05T15:33:33.471Z,19.60
2022-10-05T15:36:45.599Z,20.30
2022-10-05T15:39:56.402Z,19.60
2022-10-05T15:43:09.724Z,19.50
2022-10-05T15:46:18.950Z,19.50
2022-10-05T15:49:37.795Z,19.50
2022-10-05T15:52:49.361Z,19.40
2022-10-05T15:55:57.321Z,19.40
2022-10-05T15:59:16.855Z,19.30
2022-10-05T16:02:29.208Z,19.30
2022-10-05T16:06:04.231Z,19.30
2022-10-05T16:09:20.909Z,19.20
2022-10-05T16:12:36.564Z,19.90
2022-10-05T16:15:46.342Z,19.20
2022-10-05T16:19:04.618Z,19.10
2022-10-05T16:22:23.147Z,19.10
2022-10-05T16:25:39.951Z,19.10
2022-10-05T16:28:57.236Z,19.00
2022-10-05T16:32:07.967Z,19.00
2022-10-05T16:35:29.220Z,18.90
2022-10-05T16:38:50.301Z,18.90
2022-10-05T16:42:02.388Z,18.90
2022-10-05T16:45:25.999Z,18.80
2022-10-05T16:48:34.343Z,18.90
2022-10-05T16:51:51.539Z,18.80
2022-10-05T16:55:02.747Z,18.80
2022-10-05T16:58:21.839Z,18.70
2022-10-05T17:01:45.042Z,18.80
2022-10-05T17:05:04.254Z,18.70
2022-10-05T17:08:40.161Z,18.70
2022-10-05T17:12:02.950Z,18.70
2022-10-05T17:15:33.426Z,18.70
2022-10-05T17:19:16.199Z,18.70
2022-10-05T17:22:28.298Z,18.60
2022-10-05T17:25:46.267Z,18.70
2022-10-05T17:29:09.846Z,18.70
2022-10-05T17:32:34.796Z,18.50
2022-10-05T17:36:12.225Z,18.60
2022-10-05T17:39:18.975Z,18.60
2022-10-05T17:42:49.501Z,18.60
2022-10-05T17:46:00.572Z,18.60
2022-10-05T17:49:44.343Z,18.50
2022-10-05T17:53:39.892Z,18.50
2022-10-05T17:57:21.300Z,18.50
2022-10-05T18:00:56.711Z,17.90
2022-10-05T18:04:38.434Z,18.50
2022-10-05T18:07:43.035Z,18.50
2022-10-05T18:11:17.047Z,18.50
2022-10-05T18:14:24.752Z,18.50
2022-10-05T18:17:44.974Z,18.50
2022-10-05T18:21:28.497Z,18.50
2022-10-05T18:25:03.879Z,18.60
2022-10-05T18:28:24.974Z,18.50
2022-10-05T18:31:40.233Z,18.50
2022-10-05T18:34:52.691Z,18.50
2022-10-05T18:38:17.734Z,18.50
2022-10-05T18:41:36.974Z,18.50
2022-10-05T18:44:45.882Z,18.50
2022-10-05T18:48:07.678Z,18.50
2022-10-05T18:51:22.549Z,18.50
2022-10-05T18:54:49.821Z,18.50
2022-10-05T18:58:12.032Z,18.50
2022-10-05T19:01:52.280Z,18.30
2022-10-05T19:05:23.754Z,18.50
2022-10-05T19:08:50.214Z,19.30
2022-10-05T19:12:05.632Z,19.00
2022-10-05T19:15:24.175Z,18.50
2022-10-05T19:18:46.808Z,18.50
2022-10-05T19:22:02.105Z,18.50
2022-10-05T19:25:28.404Z,18.50
2022-10-05T19:28:39.466Z,18.50
2022-10-05T19:31:50.358Z,18.60
2022-10-05T19:35:13.632Z,19.40
2022-10-05T19:38:28.130Z,18.50
2022-10-05T19:41:51.978Z,18.60
2022-10-05T19:45:13.695Z,18.60
2022-10-05T19:48:32.253Z,18.60
2022-10-05T19:51:49.535Z,18.60
2022-10-05T19:55:06.670Z,18.70
2022-10-05T19:58:22.382Z,18.60
2022-10-05T20:01:33.864Z,18.70
2022-10-05T20:04:42.408Z,18.60
2022-10-05T20:07:45.667Z,19.40
2022-10-05T20:11:09.088Z,18.60
2022-10-05T20:14:21.447Z,18.60
2022-10-05T20:17:47.189Z,18.80
2022-10-05T20:20:50.348Z,18.40
2022-10-05T20:24:08.465Z,18.30
2022-10-05T20:27:49.760Z,18.30
2022-10-05T20:30:54.750Z,18.70
2022-10-05T20:34:00.279Z,18.20
2022-10-05T20:37:03.312Z,18.20
2022-10-05T20:40:08.148Z,18.20
2022-10-05T20:43:12.754Z,18.30
2022-10-05T20:46:17.528Z,18.30
2022-10-05T20:49:22.644Z,18.30
2022-10-05T20:52:25.712Z,18.40
2022-10-05T20:55:31.191Z,18.40
2022-10-05T20:58:35.662Z,18.70
2022-10-05T21:01:38.704Z,18.40
2022-10-05T21:04:46.626Z,18.50
2022-10-05T21:07:49.673Z,18.50
2022-10-05T21:10:52.660Z,18.60
2022-10-05T21:13:59.956Z,18.50
2022-10-05T21:17:06.642Z,18.10
2022-10-05T21:20:11.121Z,18.60
2022-10-05T21:23:14.162Z,18.60
2022-10-05T21:26:17.965Z,18.60
2022-10-05T21:29:22.364Z,18.20
2022-10-05T21:32:25.481Z,18.70
2022-10-05T21:35:28.564Z,18.70
2022-10-05T21:38:31.648Z,18.70
2022-10-05T21:41:34.713Z,18.80
2022-10-05T21:44:39.236Z,18.80
2022-10-05T21:47:42.257Z,19.20
2022-10-05T21:50:45.960Z,18.80
2022-10-05T21:53:53.656Z,18.80
2022-10-05T21:56:59.995Z,18.90
2022-10-05T22:00:09.140Z,19.00
2022-10-05T22:03:12.168Z,19.00
2022-10-05T22:06:15.153Z,18.90
2022-10-05T22:09:18.128Z,19.00
2022-10-05T22:12:21.763Z,19.00
2022-10-05T22:15:26.225Z,19.30
2022-10-05T22:18:29.655Z,19.10
2022-10-05T22:21:37.799Z,19.10
2022-10-05T22:24:41.162Z,19.10
2022-10-05T22:27:44.367Z,19.30
2022-10-05T22:30:48.862Z,19.70
2022-10-05T22:33:52.575Z,19.10
2022-10-05T22:36:55.684Z,19.10
2022-10-05T22:39:59.349Z,19.10
2022-10-05T22:43:02.336Z,19.00
2022-10-05T22:46:11.574Z,19.00
2022-10-05T22:49:14.664Z,19.00
2022-10-05T22:52:17.893Z,19.00
2022-10-05T22:55:21.084Z,18.90
2022-10-05T22:58:24.598Z,18.60
2022-10-05T23:01:29.211Z,18.90
2022-10-05T23:04:32.211Z,18.80
2022-10-05T23:07:38.617Z,18.90
2022-10-05T23:10:41.646Z,18.90
2022-10-05T23:13:44.950Z,18.90
2022-10-05T23:16:49.904Z,18.90
2022-10-05T23:19:52.913Z,18.90
2022-10-05T23:22:55.865Z,18.90
2022-10-05T23:26:03.279Z,19.20
2022-10-05T23:29:06.347Z,18.90
2022-10-05T23:32:10.797Z,18.90
2022-10-05T23:35:14.597Z,18.90
2022-10-05T23:38:17.979Z,18.90
2022-10-05T23:41:21.735Z,19.10
2022-10-05T23:44:24.786Z,19.00
2022-10-05T23:47:29.170Z,19.00
2022-10-05T23:50:32.982Z,19.10
2022-10-05T23:53:36.005Z,19.00
2022-10-05T23:56:39.062Z,18.90
2022-10-05T23:59:42.220Z,19.00
